createdAt,value
2018-04-14T00:01:02.372Z,54.67
2018-04-14T00:03:30.965Z,51.00
2018-04-14T00:05:59.435Z,49.30
2018-04-14T00:08:27.796Z,53.23
2018-04-14T00:10:56.151Z,56.67
2018-04-14T00:13:24.542Z,56.87
2018-04-14T00:15:52.981Z,57.57
2018-04-14T00:18:22.198Z,61.03
2018-04-14T00:20:50.551Z,64.97
2018-04-14T00:23:19.779Z,66.13
2018-04-14T00:25:48.196Z,67.70
2018-04-14T00:28:16.548Z,65.70
2018-04-14T00:30:44.926Z,62.33
2018-04-14T00:33:13.286Z,63.47
2018-04-14T00:35:41.650Z,63.27
2018-04-14T00:38:10.019Z,59.00
2018-04-14T00:40:39.229Z,55.73
2018-04-14T00:43:08.358Z,57.30
2018-04-14T00:45:36.716Z,57.17
2018-04-14T00:48:05.092Z,58.20
2018-04-14T00:50:33.442Z,57.47
2018-04-14T00:53:13.733Z,57.07
2018-04-14T00:55:42.163Z,56.77
2018-04-14T00:58:10.735Z,55.03
2018-04-14T01:00:39.073Z,54.33
2018-04-14T01:03:07.616Z,54.47
2018-04-14T01:05:35.984Z,54.40
2018-04-14T01:08:04.351Z,52.67
2018-04-14T01:10:32.723Z,52.73
2018-04-14T01:13:01.214Z,52.17
2018-04-14T01:15:29.615Z,50.83
2018-04-14T01:17:58.094Z,47.90
2018-04-14T01:20:26.473Z,48.17
2018-04-14T01:22:54.834Z,49.90
2018-04-14T01:25:23.218Z,49.33
2018-04-14T01:27:51.564Z,46.27
2018-04-14T01:30:19.978Z,47.03
2018-04-14T01:32:48.524Z,48.43
2018-04-14T01:35:17.653Z,49.20
2018-04-14T01:37:46.023Z,46.20
2018-04-14T01:40:14.417Z,46.70
2018-04-14T01:42:42.777Z,47.93
2018-04-14T01:45:11.162Z,45.70
2018-04-14T01:47:39.538Z,41.77
2018-04-14T01:50:07.895Z,45.60
2018-04-14T01:52:36.300Z,45.87
2018-04-14T01:55:04.672Z,46.53
2018-04-14T01:57:33.993Z,45.37
2018-04-14T02:00:02.355Z,43.03
2018-04-14T02:02:30.694Z,46.00
2018-04-14T02:04:59.847Z,45.80
2018-04-14T02:07:28.496Z,45.10
2018-04-14T02:09:56.911Z,44.97
2018-04-14T02:12:25.316Z,41.27
2018-04-14T02:14:53.690Z,42.87
2018-04-14T02:17:22.047Z,40.23
2018-04-14T02:19:50.408Z,42.23
2018-04-14T02:22:18.745Z,42.53
2018-04-14T02:24:47.902Z,40.03
2018-04-14T02:27:16.291Z,42.40
2018-04-14T02:29:44.712Z,39.80
2018-04-14T02:32:13.347Z,40.17
2018-04-14T02:34:41.718Z,40.60
2018-04-14T02:37:10.101Z,39.53
2018-04-14T02:39:38.459Z,40.00
2018-04-14T02:42:06.843Z,40.40
2018-04-14T02:44:35.295Z,39.33
2018-04-14T02:47:04.410Z,37.43
2018-04-14T02:49:32.922Z,39.33
2018-04-14T02:52:01.303Z,38.33
2018-04-14T02:54:29.674Z,37.63
2018-04-14T02:56:58.018Z,37.93
2018-04-14T02:59:27.162Z,37.80
2018-04-14T03:01:55.523Z,38.87
2018-04-14T03:04:23.905Z,38.60
2018-04-14T03:06:52.260Z,37.80
2018-04-14T03:09:21.387Z,39.60
2018-04-14T03:11:49.822Z,38.23
2018-04-14T03:14:18.277Z,40.50
2018-04-14T03:16:46.652Z,39.43
2018-04-14T03:19:15.002Z,41.73
2018-04-14T03:21:43.416Z,39.33
2018-04-14T03:24:11.750Z,39.77
2018-04-14T03:26:40.127Z,42.70
2018-04-14T03:29:08.474Z,42.33
2018-04-14T03:31:37.631Z,41.03
2018-04-14T03:34:05.984Z,44.13
2018-04-14T03:36:34.331Z,42.40
2018-04-14T03:39:03.453Z,42.23
2018-04-14T03:41:31.807Z,44.77
2018-04-14T03:44:00.930Z,43.93
2018-04-14T03:46:29.310Z,46.30
2018-04-14T03:48:57.666Z,44.57
2018-04-14T03:51:26.782Z,44.27
2018-04-14T03:53:55.167Z,43.10
2018-04-14T03:56:23.512Z,44.17
2018-04-14T03:58:52.633Z,44.60
2018-04-14T04:01:21.006Z,45.40
2018-04-14T04:03:50.141Z,44.50
2018-04-14T04:06:18.494Z,44.77
2018-04-14T04:08:46.867Z,45.67
2018-04-14T04:11:15.250Z,44.40
2018-04-14T04:13:44.295Z,43.73
2018-04-14T04:16:12.745Z,45.87
2018-04-14T04:18:53.048Z,45.23
2018-04-14T04:21:33.136Z,43.87
2018-04-14T04:24:13.421Z,42.13
2018-04-14T04:26:41.797Z,43.20
2018-04-14T04:29:10.213Z,43.87
2018-04-14T04:31:39.374Z,44.37
2018-04-14T04:34:07.782Z,42.23
2018-04-14T04:36:36.129Z,43.97
2018-04-14T04:39:04.521Z,43.10
2018-04-14T04:41:32.920Z,43.50
2018-04-14T04:44:01.300Z,41.60
2018-04-14T04:46:29.646Z,40.87
2018-04-14T04:48:58.012Z,40.70
2018-04-14T04:51:27.127Z,44.20
2018-04-14T04:53:55.469Z,42.30
2018-04-14T04:56:24.616Z,42.10
2018-04-14T04:58:52.940Z,42.23
2018-04-14T05:01:22.178Z,42.70
2018-04-14T05:03:50.553Z,44.53
2018-04-14T05:06:19.027Z,42.57
2018-04-14T05:08:47.402Z,44.70
2018-04-14T05:11:16.601Z,45.83
2018-04-14T05:13:44.993Z,45.73
2018-04-14T05:16:13.342Z,49.37
2018-04-14T05:18:42.464Z,47.47
2018-04-14T05:21:10.817Z,45.37
2018-04-14T05:23:39.956Z,44.33
2018-04-14T05:26:08.447Z,47.63
2018-04-14T05:28:36.789Z,45.47
2018-04-14T05:31:05.152Z,43.67
2018-04-14T05:33:34.297Z,47.27
2018-04-14T05:36:02.690Z,43.23
2018-04-14T05:38:31.044Z,46.43
2018-04-14T05:40:59.601Z,46.47
2018-04-14T05:43:28.109Z,47.97
2018-04-14T05:45:56.544Z,47.47
2018-04-14T05:48:24.892Z,46.60
2018-04-14T05:50:53.377Z,47.07
2018-04-14T05:53:21.700Z,45.80
2018-04-14T05:55:50.048Z,46.17
2018-04-14T05:58:18.506Z,44.77
2018-04-14T06:00:46.852Z,46.87
2018-04-14T06:03:15.270Z,43.33
2018-04-14T06:05:43.618Z,45.43
2018-04-14T06:08:12.180Z,43.60
2018-04-14T06:10:41.375Z,44.60
2018-04-14T06:13:10.663Z,43.77
2018-04-14T06:15:39.025Z,43.00
2018-04-14T06:18:07.376Z,43.43
2018-04-14T06:20:35.799Z,44.07
2018-04-14T06:23:04.667Z,39.17
2018-04-14T06:25:33.032Z,38.63
2018-04-14T06:28:01.406Z,39.90
2018-04-14T06:30:29.951Z,38.90
2018-04-14T06:32:58.383Z,39.53
2018-04-14T06:35:26.937Z,40.37
2018-04-14T06:37:55.325Z,39.13
2018-04-14T06:40:23.694Z,39.43
2018-04-14T06:42:52.102Z,36.67
2018-04-14T06:45:20.463Z,37.70
2018-04-14T06:47:48.882Z,38.83
2018-04-14T06:50:17.270Z,38.50
2018-04-14T06:52:45.621Z,38.10
2018-04-14T06:55:13.976Z,40.10
2018-04-14T06:57:42.349Z,37.70
2018-04-14T07:00:10.796Z,39.83
2018-04-14T07:02:39.963Z,42.03
2018-04-14T07:05:08.305Z,42.70
2018-04-14T07:07:36.673Z,43.63
2018-04-14T07:10:05.062Z,44.93
2018-04-14T07:12:33.443Z,45.00
2018-04-14T07:15:01.955Z,42.13
2018-04-14T07:17:30.300Z,42.27
2018-04-14T07:19:58.809Z,44.13
2018-04-14T07:22:27.191Z,43.40
2018-04-14T07:24:55.752Z,44.17
2018-04-14T07:27:24.154Z,42.63
2018-04-14T07:29:52.518Z,43.93
2018-04-14T07:32:20.960Z,43.63
2018-04-14T07:34:49.254Z,43.50
2018-04-14T07:37:17.664Z,46.10
2018-04-14T07:39:46.010Z,44.07
2018-04-14T07:42:14.426Z,44.47
2018-04-14T07:44:42.832Z,42.27
2018-04-14T07:47:11.221Z,43.03
2018-04-14T07:49:39.564Z,39.70
2018-04-14T07:52:07.933Z,41.43
2018-04-14T07:54:36.341Z,40.30
2018-04-14T07:57:04.822Z,41.80
2018-04-14T07:59:34.176Z,40.80
2018-04-14T08:02:02.584Z,41.30
2018-04-14T08:04:31.070Z,39.23
2018-04-14T08:06:59.424Z,38.80
2018-04-14T08:09:27.855Z,37.20
2018-04-14T08:11:56.209Z,36.77
2018-04-14T08:14:24.644Z,40.47
2018-04-14T08:16:53.796Z,40.20
2018-04-14T08:19:22.157Z,39.30
2018-04-14T08:21:50.530Z,37.87
2018-04-14T08:24:18.909Z,39.47
2018-04-14T08:26:47.301Z,38.13
2018-04-14T08:29:15.794Z,36.27
2018-04-14T08:31:44.165Z,40.67
2018-04-14T08:34:12.630Z,37.67
2018-04-14T08:36:41.072Z,40.50
2018-04-14T08:39:09.436Z,37.47
2018-04-14T08:41:37.792Z,39.27
2018-04-14T08:44:06.164Z,38.93
2018-04-14T08:46:34.524Z,38.13
2018-04-14T08:49:02.881Z,36.97
2018-04-14T08:51:31.296Z,38.47
2018-04-14T08:53:59.741Z,38.47
2018-04-14T08:56:28.878Z,37.10
2018-04-14T08:58:57.253Z,36.00
2018-04-14T09:01:25.602Z,36.47
2018-04-14T09:03:53.963Z,35.30
2018-04-14T09:06:23.208Z,38.73
2018-04-14T09:08:51.587Z,38.00
2018-04-14T09:11:19.998Z,37.13
2018-04-14T09:13:48.352Z,38.30
2018-04-14T09:16:16.751Z,38.53
2018-04-14T09:18:45.113Z,37.33
2018-04-14T09:21:13.499Z,37.97
2018-04-14T09:23:41.859Z,38.47
2018-04-14T09:26:10.427Z,36.10
2018-04-14T09:28:38.983Z,38.57
2018-04-14T09:31:07.331Z,36.90
2018-04-14T09:33:35.699Z,36.57
2018-04-14T09:36:04.060Z,35.80
2018-04-14T09:38:32.451Z,35.93
2018-04-14T09:41:00.823Z,35.07
2018-04-14T09:43:29.197Z,33.53
2018-04-14T09:45:57.562Z,34.57
2018-04-14T09:48:25.942Z,33.03
2018-04-14T09:50:54.292Z,34.20
2018-04-14T09:53:22.634Z,33.83
2018-04-14T09:55:51.130Z,35.40
2018-04-14T09:58:19.582Z,32.20
2018-04-14T10:00:53.681Z,34.07
2018-04-14T10:03:24.693Z,34.73
2018-04-14T10:05:53.238Z,34.53
2018-04-14T10:08:21.596Z,33.63
2018-04-14T10:10:50.093Z,33.93
2018-04-14T10:13:18.447Z,34.57
2018-04-14T10:15:46.930Z,34.60
2018-04-14T10:18:15.330Z,35.37
2018-04-14T10:20:44.502Z,33.23
2018-04-14T10:23:12.870Z,34.60
2018-04-14T10:25:41.318Z,33.77
2018-04-14T10:28:09.706Z,35.83
2018-04-14T10:30:38.049Z,35.60
2018-04-14T10:33:06.418Z,32.60
2018-04-14T10:35:34.794Z,34.30
2018-04-14T10:38:03.204Z,34.70
2018-04-14T10:40:31.673Z,32.63
2018-04-14T10:43:00.059Z,34.83
2018-04-14T10:45:28.425Z,34.73
2018-04-14T10:47:56.798Z,31.67
2018-04-14T10:50:25.157Z,32.67
2018-04-14T10:52:53.706Z,33.33
2018-04-14T10:55:22.167Z,34.23
2018-04-14T10:57:50.507Z,31.07
2018-04-14T11:00:18.877Z,31.63
2018-04-14T11:02:47.287Z,32.13
2018-04-14T11:05:15.989Z,31.73
2018-04-14T11:07:44.343Z,32.30
2018-04-14T11:10:12.707Z,32.77
2018-04-14T11:12:41.103Z,32.17
2018-04-14T11:15:09.450Z,31.83
2018-04-14T11:17:37.862Z,31.33
2018-04-14T11:20:06.386Z,32.03
2018-04-14T11:22:34.779Z,30.67
2018-04-14T11:25:03.170Z,33.07
2018-04-14T11:27:32.303Z,34.33
2018-04-14T11:30:00.812Z,33.63
2018-04-14T11:32:29.160Z,32.97
2018-04-14T11:34:57.535Z,33.07
2018-04-14T11:37:25.988Z,31.40
2018-04-14T11:39:55.145Z,31.17
2018-04-14T11:42:23.537Z,29.80
2018-04-14T11:44:52.192Z,29.90
2018-04-14T11:47:20.553Z,29.40
2018-04-14T11:49:48.952Z,30.97
2018-04-14T11:52:17.350Z,29.10
2018-04-14T11:54:45.684Z,30.17
2018-04-14T11:57:14.480Z,30.80
2018-04-14T11:59:42.836Z,30.80
2018-04-14T12:02:11.991Z,31.13
2018-04-14T12:04:40.335Z,28.97
2018-04-14T12:07:08.732Z,30.33
2018-04-14T12:09:37.090Z,29.00
2018-04-14T12:12:05.462Z,29.33
2018-04-14T12:14:34.084Z,31.10
2018-04-14T12:17:02.487Z,26.83
2018-04-14T12:19:30.946Z,29.63
2018-04-14T12:21:59.307Z,30.27
2018-04-14T12:24:27.715Z,29.80
2018-04-14T12:26:56.179Z,28.60
2018-04-14T12:29:24.637Z,30.27
2018-04-14T12:31:53.918Z,30.87
2018-04-14T12:34:23.189Z,28.80
2018-04-14T12:36:51.543Z,29.23
2018-04-14T12:39:20.005Z,28.50
2018-04-14T12:41:48.462Z,30.07
2018-04-14T12:44:17.580Z,28.83
2018-04-14T12:46:45.975Z,28.67
2018-04-14T12:49:14.338Z,29.33
2018-04-14T12:51:42.712Z,28.83
2018-04-14T12:54:11.070Z,29.37
2018-04-14T12:56:39.526Z,26.33
2018-04-14T12:59:07.898Z,29.40
2018-04-14T13:01:36.294Z,27.95
2018-04-14T13:04:05.432Z,29.10
2018-04-14T13:06:33.819Z,31.08
2018-04-14T13:09:02.379Z,29.25
2018-04-14T13:11:31.483Z,30.23
2018-04-14T13:13:59.871Z,31.02
2018-04-14T13:16:28.223Z,30.10
2018-04-14T13:18:57.453Z,29.60
2018-04-14T13:21:25.939Z,29.37
2018-04-14T13:23:54.313Z,30.70
2018-04-14T13:26:22.683Z,29.42
2018-04-14T13:28:51.123Z,29.95
2018-04-14T13:31:19.479Z,28.62
2018-04-14T13:33:47.871Z,28.80
2018-04-14T13:36:16.239Z,30.02
2018-04-14T13:38:44.757Z,28.87
2018-04-14T13:41:13.192Z,28.83
2018-04-14T13:43:41.534Z,30.02
2018-04-14T13:46:09.959Z,30.00
2018-04-14T13:48:38.370Z,29.63
2018-04-14T13:51:06.921Z,29.75
2018-04-14T13:53:35.266Z,29.10
2018-04-14T13:56:03.628Z,30.37
2018-04-14T13:58:32.036Z,30.65
2018-04-14T14:01:00.395Z,31.58
2018-04-14T14:03:28.845Z,30.20
2018-04-14T14:05:57.340Z,30.55
2018-04-14T14:08:25.781Z,30.52
2018-04-14T14:10:54.131Z,30.45
2018-04-14T14:13:22.517Z,30.17
2018-04-14T14:15:50.875Z,30.65
2018-04-14T14:18:19.295Z,31.62
2018-04-14T14:20:47.779Z,30.15
2018-04-14T14:23:16.157Z,29.73
2018-04-14T14:25:44.510Z,30.48
2018-04-14T14:28:12.856Z,31.05
2018-04-14T14:30:42.005Z,29.58
2018-04-14T14:33:10.357Z,31.17
2018-04-14T14:35:38.722Z,30.08
2018-04-14T14:38:07.085Z,31.20
2018-04-14T14:40:36.227Z,31.50
2018-04-14T14:43:04.579Z,29.63
2018-04-14T14:45:32.960Z,30.77
2018-04-14T14:48:02.082Z,31.23
2018-04-14T14:50:30.433Z,29.60
2018-04-14T14:52:58.841Z,30.77
2018-04-14T14:55:27.195Z,29.83
2018-04-14T14:57:55.606Z,28.95
2018-04-14T15:00:23.990Z,29.27
2018-04-14T15:02:52.354Z,29.47
2018-04-14T15:05:20.711Z,29.42
2018-04-14T15:07:49.244Z,28.90
2018-04-14T15:10:17.648Z,28.33
2018-04-14T15:12:45.992Z,28.20
2018-04-14T15:15:14.360Z,28.57
2018-04-14T15:17:42.750Z,28.30
2018-04-14T15:20:11.119Z,28.33
2018-04-14T15:22:39.486Z,27.63
2018-04-14T15:25:07.909Z,28.73
2018-04-14T15:27:36.360Z,27.00
2018-04-14T15:30:04.722Z,26.73
2018-04-14T15:32:33.082Z,27.73
2018-04-14T15:35:02.210Z,30.20
2018-04-14T15:37:30.592Z,28.93
2018-04-14T15:39:58.958Z,27.67
2018-04-14T15:42:27.310Z,27.17
2018-04-14T15:44:56.440Z,28.43
2018-04-14T15:47:24.799Z,30.70
2018-04-14T15:49:53.914Z,31.77
2018-04-14T15:52:22.312Z,30.90
2018-04-14T15:54:50.996Z,30.93
2018-04-14T15:57:19.376Z,29.77
2018-04-14T15:59:47.757Z,30.73
2018-04-14T16:02:16.143Z,31.43
2018-04-14T16:04:44.515Z,30.70
2018-04-14T16:07:12.895Z,28.20
2018-04-14T16:09:41.389Z,28.40
2018-04-14T16:12:09.736Z,29.70
2018-04-14T16:14:38.142Z,30.08
2018-04-14T16:17:06.513Z,28.65
2018-04-14T16:19:34.893Z,30.40
2018-04-14T16:22:03.253Z,32.58
2018-04-14T16:24:31.659Z,30.52
2018-04-14T16:27:00.075Z,30.10
2018-04-14T16:29:29.201Z,32.67
2018-04-14T16:31:58.771Z,30.20
2018-04-14T16:34:27.216Z,30.87
2018-04-14T16:36:55.687Z,31.87
2018-04-14T16:39:24.155Z,33.23
2018-04-14T16:41:52.616Z,31.80
2018-04-14T16:44:22.148Z,30.10
2018-04-14T16:46:50.524Z,31.43
2018-04-14T16:49:18.874Z,29.95
2018-04-14T16:51:47.997Z,32.65
2018-04-14T16:54:16.387Z,36.63
2018-04-14T16:56:44.788Z,32.55
2018-04-14T16:59:13.218Z,33.40
2018-04-14T17:01:42.453Z,40.90
2018-04-14T17:04:10.855Z,42.23
2018-04-14T17:06:39.272Z,45.50
2018-04-14T17:09:07.651Z,38.40
2018-04-14T17:11:37.619Z,42.13
2018-04-14T17:14:05.975Z,47.90
2018-04-14T17:16:34.381Z,33.27
2018-04-14T17:19:02.764Z,32.63
2018-04-14T17:21:31.136Z,32.83
2018-04-14T17:23:59.495Z,31.13
2018-04-14T17:26:27.867Z,32.77
2018-04-14T17:28:56.236Z,32.77
2018-04-14T17:31:25.355Z,33.77
2018-04-14T17:33:53.712Z,32.77
2018-04-14T17:36:22.180Z,33.23
2018-04-14T17:38:50.583Z,32.30
2018-04-14T17:41:18.948Z,32.30
2018-04-14T17:43:47.389Z,33.80
2018-04-14T17:46:16.640Z,32.77
2018-04-14T17:48:44.970Z,32.23
2018-04-14T17:51:13.343Z,33.33
2018-04-14T17:53:41.678Z,33.93
2018-04-14T17:56:10.039Z,33.20
2018-04-14T17:58:39.149Z,34.10
2018-04-14T18:01:07.537Z,33.67
2018-04-14T18:03:35.906Z,32.87
2018-04-14T18:06:04.293Z,33.97
2018-04-14T18:08:32.655Z,33.20
2018-04-14T18:11:01.091Z,33.93
2018-04-14T18:13:29.526Z,34.50
2018-04-14T18:15:58.630Z,33.93
2018-04-14T18:18:27.139Z,32.53
2018-04-14T18:20:55.517Z,34.63
2018-04-14T18:23:23.864Z,34.90
2018-04-14T18:25:52.226Z,34.30
2018-04-14T18:28:20.673Z,33.30
2018-04-14T18:30:49.146Z,34.60
2018-04-14T18:33:17.515Z,35.07
2018-04-14T18:35:45.899Z,33.43
2018-04-14T18:38:14.269Z,34.00
2018-04-14T18:40:42.750Z,31.50
2018-04-14T18:43:11.117Z,33.47
2018-04-14T18:45:39.504Z,33.83
2018-04-14T18:48:08.776Z,34.53
2018-04-14T18:50:37.917Z,34.83
2018-04-14T18:53:06.279Z,42.60
2018-04-14T18:55:34.669Z,34.87
2018-04-14T18:58:03.140Z,32.97
2018-04-14T19:00:31.532Z,33.97
2018-04-14T19:02:59.918Z,32.30
2018-04-14T19:05:28.269Z,33.97
2018-04-14T19:07:56.671Z,35.27
2018-04-14T19:10:25.042Z,32.70
2018-04-14T19:12:53.429Z,33.80
2018-04-14T19:15:21.779Z,33.60
2018-04-14T19:17:50.223Z,34.23
2018-04-14T19:20:19.201Z,31.63
2018-04-14T19:22:47.558Z,34.13
2018-04-14T19:25:16.018Z,34.33
2018-04-14T19:27:44.511Z,31.30
2018-04-14T19:30:12.873Z,31.07
2018-04-14T19:32:41.232Z,34.27
2018-04-14T19:35:10.355Z,32.97
2018-04-14T19:37:38.742Z,32.47
2018-04-14T19:40:07.134Z,34.67
2018-04-14T19:42:35.522Z,33.87
2018-04-14T19:45:03.903Z,33.03
2018-04-14T19:47:32.289Z,31.87
2018-04-14T19:50:00.852Z,31.30
2018-04-14T19:52:29.236Z,33.07
2018-04-14T19:54:57.629Z,32.87
2018-04-14T19:57:26.012Z,33.27
2018-04-14T19:59:54.400Z,32.90
2018-04-14T20:02:22.871Z,31.57
2018-04-14T20:04:51.339Z,30.97
2018-04-14T20:07:19.696Z,32.23
2018-04-14T20:09:48.070Z,33.73
2018-04-14T20:12:16.440Z,32.93
2018-04-14T20:14:45.572Z,33.10
2018-04-14T20:17:13.930Z,32.07
2018-04-14T20:19:42.326Z,33.40
2018-04-14T20:22:10.699Z,31.73
2018-04-14T20:24:39.059Z,33.30
2018-04-14T20:27:08.468Z,37.03
2018-04-14T20:29:36.840Z,35.33
2018-04-14T20:32:05.288Z,34.93
2018-04-14T20:34:33.996Z,35.03
2018-04-14T20:37:03.618Z,37.23
2018-04-14T20:39:32.025Z,35.33
2018-04-14T20:42:00.856Z,37.13
2018-04-14T20:44:29.278Z,36.23
2018-04-14T20:46:57.841Z,36.93
2018-04-14T20:49:27.780Z,36.17
2018-04-14T20:51:56.118Z,37.80
2018-04-14T20:54:24.495Z,37.73
2018-04-14T20:56:53.051Z,36.93
2018-04-14T20:59:21.635Z,34.53
2018-04-14T21:01:50.024Z,37.37
2018-04-14T21:04:18.506Z,37.83
2018-04-14T21:06:47.231Z,37.67
2018-04-14T21:09:16.363Z,35.57
2018-04-14T21:11:44.973Z,38.13
2018-04-14T21:14:14.128Z,38.97
2018-04-14T21:16:42.858Z,39.07
2018-04-14T21:19:11.236Z,38.33
2018-04-14T21:21:40.029Z,37.83
2018-04-14T21:24:08.404Z,37.57
2018-04-14T21:26:36.879Z,37.50
2018-04-14T21:29:05.495Z,37.33
2018-04-14T21:31:34.196Z,39.63
2018-04-14T21:34:02.964Z,39.83
2018-04-14T21:36:31.316Z,37.63
2018-04-14T21:38:59.691Z,36.97
2018-04-14T21:41:28.042Z,39.20
2018-04-14T21:43:56.614Z,37.20
2018-04-14T21:46:25.855Z,40.07
2018-04-14T21:48:55.238Z,38.73
2018-04-14T21:51:23.605Z,40.47
2018-04-14T21:53:52.059Z,39.07
2018-04-14T21:56:20.470Z,37.57
2018-04-14T21:58:49.180Z,39.50
2018-04-14T22:01:17.566Z,41.73
2018-04-14T22:03:45.940Z,38.83
2018-04-14T22:06:14.327Z,38.20
2018-04-14T22:08:42.749Z,38.43
2018-04-14T22:11:11.891Z,42.27
2018-04-14T22:13:40.375Z,41.57
2018-04-14T22:16:08.749Z,39.93
2018-04-14T22:18:37.202Z,39.17
2018-04-14T22:21:05.692Z,39.57
2018-04-14T22:23:34.073Z,40.03
2018-04-14T22:26:02.423Z,39.37
2018-04-14T22:28:31.569Z,40.93
2018-04-14T22:30:59.957Z,41.17
2018-04-14T22:33:28.327Z,40.07
2018-04-14T22:35:56.706Z,40.63
2018-04-14T22:38:25.356Z,39.40
2018-04-14T22:40:53.705Z,41.00
2018-04-14T22:43:22.455Z,38.93
2018-04-14T22:45:50.829Z,41.00
2018-04-14T22:48:19.265Z,39.00
2018-04-14T22:50:47.719Z,39.33
2018-04-14T22:53:16.133Z,38.27
2018-04-14T22:55:44.984Z,38.53
2018-04-14T22:58:13.371Z,38.30
2018-04-14T23:00:41.788Z,39.63
2018-04-14T23:03:11.031Z,40.97
2018-04-14T23:05:39.424Z,40.47
2018-04-14T23:08:07.985Z,39.30
2018-04-14T23:10:36.563Z,40.37
2018-04-14T23:13:05.033Z,41.33
2018-04-14T23:15:33.966Z,41.87
2018-04-14T23:18:02.337Z,40.63
2018-04-14T23:20:30.760Z,39.47
2018-04-14T23:22:59.242Z,40.23
2018-04-14T23:25:28.492Z,39.80
2018-04-14T23:27:56.856Z,39.87
2018-04-14T23:30:25.253Z,40.93
2018-04-14T23:32:53.716Z,40.93
2018-04-14T23:35:22.283Z,40.07
2018-04-14T23:37:50.690Z,41.53
2018-04-14T23:40:19.088Z,39.43
2018-04-14T23:42:47.450Z,39.07
2018-04-14T23:45:15.812Z,41.53
2018-04-14T23:47:44.185Z,41.80
2018-04-14T23:50:12.547Z,41.27
2018-04-14T23:52:41.095Z,40.93
2018-04-14T23:55:09.446Z,42.27
2018-04-14T23:57:37.796Z,42.87
